Time;durP1;ratioP1;P1;durP2;ratioP2;P2;SDS_P1;SDS_P2;PMS_P1;PMS_P2;Temp;Humidity;BMP_temperature;BMP_pressure;BME280_temperature;BME280_humidity;BME280_pressure;Samples;Min_cycle;Max_cycle;Signal;HPM_P1;HPM_P2
2022/03/09 00:02:09;;;;;;;21.50;10.48;;;-0.70;55.70;;;;;;4936769;28;20649;-64
2022/03/09 00:04:35;;;;;;;20.15;10.63;;;-0.80;55.70;;;;;;4939178;28;20038;-66
2022/03/09 00:07:01;;;;;;;23.83;10.15;;;-0.80;55.80;;;;;;4938910;28;20110;-65
2022/03/09 00:09:27;;;;;;;21.95;10.27;;;-0.90;56.00;;;;;;4939639;28;20468;-66
2022/03/09 00:11:53;;;;;;;21.77;10.13;;;-0.90;56.10;;;;;;4939540;28;20043;-65
2022/03/09 00:14:19;;;;;;;20.35;10.63;;;-1.00;56.10;;;;;;4938750;28;20035;-66
2022/03/09 00:16:44;;;;;;;21.38;10.50;;;-1.00;56.20;;;;;;4934624;28;20495;-66
2022/03/09 00:19:10;;;;;;;19.92;9.90;;;-1.00;56.70;;;;;;4934741;28;20042;-64
2022/03/09 00:21:36;;;;;;;23.42;10.35;;;-1.00;56.10;;;;;;4934167;28;20487;-66
2022/03/09 00:24:02;;;;;;;23.85;10.15;;;-1.00;56.00;;;;;;4936705;28;20035;-65
2022/03/09 00:26:28;;;;;;;24.00;10.65;;;-1.00;56.10;;;;;;4937089;28;20043;-65
2022/03/09 00:28:53;;;;;;;19.65;10.80;;;-1.00;56.10;;;;;;4937796;28;20554;-65
2022/03/09 00:31:19;;;;;;;21.48;10.52;;;-1.00;56.10;;;;;;4938168;28;20482;-62
2022/03/09 00:33:45;;;;;;;18.20;10.18;;;-1.00;56.20;;;;;;4937974;28;20423;-66
2022/03/09 00:36:10;;;;;;;23.23;10.60;;;-0.90;56.40;;;;;;4939386;28;20031;-65
2022/03/09 00:38:36;;;;;;;18.13;9.85;;;-0.90;56.30;;;;;;4935704;28;20036;-65
2022/03/09 00:41:02;;;;;;;23.58;10.93;;;-0.90;56.40;;;;;;4936226;28;20035;-65
2022/03/09 00:43:28;;;;;;;21.02;10.55;;;-0.90;56.40;;;;;;4939334;28;20542;-66
2022/03/09 00:45:54;;;;;;;19.98;10.25;;;-0.90;56.40;;;;;;4935796;28;20031;-65
2022/03/09 00:48:20;;;;;;;19.65;10.98;;;-0.80;56.40;;;;;;4934669;28;20769;-65
2022/03/09 00:50:46;;;;;;;19.48;10.43;;;-0.90;56.30;;;;;;4934877;28;20142;-66
2022/03/09 00:53:12;;;;;;;21.73;11.20;;;-0.90;56.30;;;;;;4934566;28;20974;-66
2022/03/09 00:55:38;;;;;;;19.27;10.00;;;-0.90;56.30;;;;;;4935768;28;20035;-65
2022/03/09 00:58:04;;;;;;;21.00;11.32;;;-1.00;56.20;;;;;;4939977;28;20035;-66
2022/03/09 01:00:29;;;;;;;25.02;12.00;;;-1.00;56.40;;;;;;4935609;28;20511;-65
2022/03/09 01:02:55;;;;;;;17.67;10.50;;;-1.00;56.40;;;;;;4937169;28;20043;-66
2022/03/09 01:05:21;;;;;;;19.98;10.95;;;-1.00;56.40;;;;;;4932907;28;20443;-66
2022/03/09 01:07:46;;;;;;;20.17;10.50;;;-1.00;56.50;;;;;;4935562;28;20035;-66
2022/03/09 01:10:12;;;;;;;22.13;11.10;;;-1.10;56.50;;;;;;4932550;28;20031;-65
2022/03/09 01:12:38;;;;;;;19.02;10.45;;;-1.10;56.50;;;;;;4935020;28;20097;-62
2022/03/09 01:15:05;;;;;;;17.20;9.48;;;-1.10;56.70;;;;;;4934149;28;20035;-66
2022/03/09 01:17:31;;;;;;;22.42;10.90;;;-1.20;56.80;;;;;;4936762;28;20122;-66
2022/03/09 01:19:58;;;;;;;21.60;10.00;;;-1.20;56.70;;;;;;4934801;28;20498;-66
2022/03/09 01:22:23;;;;;;;19.58;10.38;;;-1.20;56.70;;;;;;4933774;28;20407;-68
2022/03/09 01:24:49;;;;;;;17.20;9.27;;;-1.20;56.90;;;;;;4936191;28;20038;-65
2022/03/09 01:27:14;;;;;;;14.73;9.10;;;-1.30;57.00;;;;;;4932924;28;20728;-65
2022/03/09 01:29:40;;;;;;;18.95;10.32;;;-1.30;56.90;;;;;;4934529;28;20047;-65
2022/03/09 01:32:07;;;;;;;23.15;10.02;;;-1.30;56.90;;;;;;4934001;28;20126;-65
2022/03/09 01:34:33;;;;;;;18.65;10.15;;;-1.30;57.10;;;;;;4933539;28;20078;-66
2022/03/09 01:36:59;;;;;;;23.42;10.82;;;-1.40;57.30;;;;;;4937809;28;20044;-65
2022/03/09 01:39:24;;;;;;;20.42;10.70;;;-1.40;57.50;;;;;;4935548;28;20578;-66
2022/03/09 01:41:50;;;;;;;23.30;10.07;;;-1.40;57.50;;;;;;4936208;28;21884;-66
2022/03/09 01:44:21;;;;;;;20.65;10.30;;;-1.40;57.50;;;;;;4933474;28;20047;-66
2022/03/09 01:46:49;;;;;;;17.42;9.95;;;-1.50;57.60;;;;;;4937012;28;20046;-66
2022/03/09 01:49:16;;;;;;;19.50;9.85;;;-1.50;57.60;;;;;;4933691;28;20036;-66
2022/03/09 01:51:44;;;;;;;19.25;10.48;;;-1.50;57.50;;;;;;4933487;28;20083;-66
2022/03/09 01:54:11;;;;;;;19.17;10.13;;;-1.60;57.60;;;;;;4933553;28;20036;-65
2022/03/09 01:56:37;;;;;;;19.73;10.52;;;-1.60;57.60;;;;;;4933125;28;20086;-65
2022/03/09 01:59:05;;;;;;;17.27;8.48;;;-1.60;57.60;;;;;;4932486;28;20036;-66
2022/03/09 02:01:31;;;;;;;19.88;10.60;;;-1.60;57.70;;;;;;4939278;28;20062;-66
2022/03/09 02:03:58;;;;;;;18.50;9.35;;;-1.60;57.60;;;;;;4934359;28;20307;-66
2022/03/09 02:06:24;;;;;;;20.42;10.18;;;-1.70;57.60;;;;;;4934524;28;20074;-66
2022/03/09 02:11:36;;;;;;;21.00;10.48;;;-1.70;57.90;;;;;;4935307;28;20066;-65
2022/03/09 02:14:01;;;;;;;20.02;10.50;;;-1.70;57.90;;;;;;4936825;28;20036;-63
2022/03/09 02:16:27;;;;;;;18.90;10.10;;;-1.80;58.00;;;;;;4934746;28;20495;-66
2022/03/09 02:18:53;;;;;;;21.38;9.75;;;-1.80;58.10;;;;;;4935077;28;20031;-65
2022/03/09 02:21:20;;;;;;;17.05;9.73;;;-1.90;58.20;;;;;;4934128;28;20504;-65
2022/03/09 02:23:47;;;;;;;21.00;9.73;;;-1.90;58.50;;;;;;4936712;28;20036;-66
2022/03/09 02:26:13;;;;;;;19.40;9.75;;;-2.00;58.50;;;;;;4936980;28;20039;-66
2022/03/09 02:28:46;;;;;;;20.88;9.95;;;-2.00;58.60;;;;;;4936216;28;20255;-66
2022/03/09 02:31:12;;;;;;;19.38;9.48;;;-2.00;59.20;;;;;;4935726;28;20037;-65
2022/03/09 02:33:37;;;;;;;17.80;9.65;;;-2.00;59.10;;;;;;4940828;28;20038;-65
2022/03/09 02:36:04;;;;;;;20.67;9.63;;;-2.00;59.20;;;;;;4934561;28;20036;-66
2022/03/09 02:38:29;;;;;;;20.13;10.77;;;-2.10;59.10;;;;;;4935078;28;20034;-66
2022/03/09 02:40:55;;;;;;;22.02;9.52;;;-2.10;59.10;;;;;;4932912;28;20040;-66
2022/03/09 02:43:21;;;;;;;19.58;10.38;;;-2.00;59.20;;;;;;4932881;28;20462;-65
2022/03/09 02:45:46;;;;;;;19.27;10.15;;;-2.10;59.20;;;;;;4937943;28;20031;-64
2022/03/09 02:48:12;;;;;;;17.85;10.40;;;-2.10;59.10;;;;;;4937072;28;20107;-63
2022/03/09 02:50:37;;;;;;;20.77;9.63;;;-2.10;59.70;;;;;;4938961;28;20118;-65
2022/03/09 02:53:03;;;;;;;19.02;10.18;;;-2.10;58.90;;;;;;4938008;28;20035;-65
2022/03/09 02:55:29;;;;;;;16.05;9.43;;;-2.10;58.80;;;;;;4938667;28;20526;-66
2022/03/09 02:57:54;;;;;;;16.67;9.35;;;-2.10;58.80;;;;;;4942799;28;20773;-65
2022/03/09 03:00:20;;;;;;;19.15;9.68;;;-2.10;58.70;;;;;;4939525;28;20043;-65
2022/03/09 03:02:45;;;;;;;16.25;9.55;;;-2.10;58.80;;;;;;4938527;28;20704;-65
2022/03/09 03:05:11;;;;;;;15.95;8.43;;;-2.10;58.80;;;;;;4937478;28;20139;-63
2022/03/09 03:07:37;;;;;;;16.35;9.18;;;-2.10;58.70;;;;;;4937634;28;20032;-66
2022/03/09 03:10:04;;;;;;;20.85;9.75;;;-2.10;58.90;;;;;;4939254;28;20054;-65
2022/03/09 03:12:30;;;;;;;17.15;9.80;;;-2.10;59.60;;;;;;4935448;28;20042;-66
2022/03/09 03:14:56;;;;;;;19.98;9.60;;;-2.10;58.90;;;;;;4938433;28;20040;-66
2022/03/09 03:17:21;;;;;;;17.63;9.60;;;-2.10;58.90;;;;;;4938126;28;21682;-62
2022/03/09 03:19:47;;;;;;;19.92;9.25;;;-2.10;58.90;;;;;;4938476;28;20032;-66
2022/03/09 03:22:12;;;;;;;18.52;9.93;;;-2.10;59.50;;;;;;4938769;28;20035;-65
2022/03/09 03:24:38;;;;;;;19.20;9.68;;;-2.10;58.90;;;;;;4939302;28;20040;-66
2022/03/09 03:27:04;;;;;;;19.17;9.07;;;-2.10;59.00;;;;;;4939274;28;20036;-66
2022/03/09 03:29:29;;;;;;;16.45;8.95;;;-2.00;59.00;;;;;;4936860;28;20044;-65
2022/03/09 03:31:55;;;;;;;15.70;8.23;;;-2.00;59.00;;;;;;4936244;28;20491;-66
2022/03/09 03:34:20;;;;;;;16.20;9.07;;;-2.00;59.00;;;;;;4936380;28;20046;-62
2022/03/09 03:36:46;;;;;;;16.65;9.30;;;-2.00;58.90;;;;;;4939255;28;20155;-66
2022/03/09 03:39:14;;;;;;;21.13;9.45;;;-2.00;58.70;;;;;;4934507;28;20027;-66
2022/03/09 03:41:40;;;;;;;17.63;9.07;;;-2.00;58.70;;;;;;4939141;28;20057;-65
2022/03/09 03:44:05;;;;;;;18.40;9.30;;;-2.00;58.60;;;;;;4938787;28;20036;-65
2022/03/09 03:46:32;;;;;;;15.65;8.93;;;-2.10;58.50;;;;;;4937564;28;20051;-66
2022/03/09 03:48:58;;;;;;;19.80;9.50;;;-2.10;58.60;;;;;;4939583;28;20090;-65
2022/03/09 03:51:23;;;;;;;18.45;9.57;;;-2.20;58.60;;;;;;4938131;28;20039;-66
2022/03/09 03:53:49;;;;;;;18.83;9.65;;;-2.20;58.50;;;;;;4937336;28;20610;-65
2022/03/09 03:56:14;;;;;;;19.95;10.35;;;-2.20;58.60;;;;;;4935128;28;20570;-65
2022/03/09 03:58:40;;;;;;;18.58;10.50;;;-2.20;58.70;;;;;;4934971;28;20028;-62
2022/03/09 04:01:06;;;;;;;19.58;10.57;;;-2.30;58.70;;;;;;4936394;28;20055;-65
2022/03/09 04:03:31;;;;;;;18.77;10.52;;;-2.30;58.80;;;;;;4938507;28;20043;-65
2022/03/09 04:05:57;;;;;;;23.33;11.07;;;-2.40;59.50;;;;;;4939365;28;20035;-67
2022/03/09 04:08:22;;;;;;;20.40;10.70;;;-2.40;59.00;;;;;;4936472;28;20506;-64
2022/03/09 04:10:48;;;;;;;20.92;9.82;;;-2.50;59.10;;;;;;4936272;28;20494;-66
2022/03/09 04:13:14;;;;;;;18.30;9.65;;;-2.50;59.20;;;;;;4937214;28;20039;-66
2022/03/09 04:15:39;;;;;;;16.85;9.93;;;-2.50;59.20;;;;;;4934942;28;20035;-63
2022/03/09 04:18:05;;;;;;;22.80;9.40;;;-2.60;59.30;;;;;;4936513;28;20055;-66
2022/03/09 04:20:31;;;;;;;17.98;9.68;;;-2.60;59.40;;;;;;4934957;28;20031;-65
2022/03/09 04:22:56;;;;;;;19.65;9.65;;;-2.60;59.40;;;;;;4938073;28;20035;-66
2022/03/09 04:25:22;;;;;;;16.35;9.27;;;-2.70;59.40;;;;;;4939193;28;20035;-66
2022/03/09 04:27:48;;;;;;;17.73;9.20;;;-2.70;59.50;;;;;;4936714;28;20078;-66
2022/03/09 04:30:14;;;;;;;14.85;8.60;;;-2.70;59.60;;;;;;4934305;28;20032;-65
2022/03/09 04:32:39;;;;;;;16.58;8.77;;;-2.70;59.50;;;;;;4935101;28;20526;-65
2022/03/09 04:35:06;;;;;;;18.15;8.85;;;-2.70;59.40;;;;;;4936181;28;20438;-65
2022/03/09 04:37:33;;;;;;;16.30;9.43;;;-2.70;59.50;;;;;;4936005;28;20032;-66
2022/03/09 04:39:59;;;;;;;17.15;9.75;;;-2.70;59.50;;;;;;4935849;28;20707;-62
2022/03/09 04:42:26;;;;;;;17.17;10.00;;;-2.70;59.60;;;;;;4932898;28;20519;-66
2022/03/09 04:44:51;;;;;;;17.70;9.98;;;-2.70;59.60;;;;;;4935716;28;20032;-65
2022/03/09 04:47:17;;;;;;;19.88;9.80;;;-2.80;59.50;;;;;;4937087;28;20031;-66
2022/03/09 04:49:43;;;;;;;18.23;9.52;;;-2.80;59.50;;;;;;4935772;28;20047;-65
2022/03/09 04:52:08;;;;;;;14.85;8.57;;;-2.80;59.60;;;;;;4937016;28;20062;-63
2022/03/09 04:54:34;;;;;;;15.80;9.07;;;-2.80;59.60;;;;;;4936139;28;20038;-66
2022/03/09 04:57:00;;;;;;;17.70;8.88;;;-2.90;59.60;;;;;;4936546;28;20036;-65
2022/03/09 04:59:25;;;;;;;23.63;9.18;;;-2.90;59.70;;;;;;4934127;28;20036;-65
2022/03/09 05:01:51;;;;;;;17.95;9.30;;;-3.00;59.90;;;;;;4935405;28;20054;-66
2022/03/09 05:04:17;;;;;;;20.52;9.02;;;-3.00;60.10;;;;;;4934934;28;20553;-64
2022/03/09 05:06:42;;;;;;;16.50;9.05;;;-3.00;60.30;;;;;;4936806;28;20036;-66
2022/03/09 05:09:08;;;;;;;16.33;8.93;;;-3.00;60.40;;;;;;4939180;28;20515;-62
2022/03/09 05:11:33;;;;;;;18.45;9.20;;;-3.00;60.40;;;;;;4936198;28;20050;-65
2022/03/09 05:13:59;;;;;;;15.30;8.05;;;-3.10;60.20;;;;;;4940337;28;20419;-66
2022/03/09 05:16:24;;;;;;;14.80;8.25;;;-3.00;60.40;;;;;;4938375;28;20038;-66
2022/03/09 05:18:50;;;;;;;18.38;8.27;;;-3.00;60.30;;;;;;4937800;28;20428;-65
2022/03/09 05:21:16;;;;;;;12.70;7.80;;;-3.10;60.20;;;;;;4935343;28;20126;-66
2022/03/09 05:23:41;;;;;;;15.05;8.93;;;-3.00;60.20;;;;;;4938330;29;20115;-65
2022/03/09 05:26:08;;;;;;;18.42;9.02;;;-3.00;60.30;;;;;;4939564;28;20040;-64
2022/03/09 05:28:33;;;;;;;18.98;10.05;;;-3.00;60.20;;;;;;4938199;28;20118;-65
2022/03/09 05:30:59;;;;;;;16.77;8.52;;;-2.90;60.00;;;;;;4939051;28;20547;-65
2022/03/09 05:33:25;;;;;;;17.35;9.07;;;-2.90;60.00;;;;;;4938759;28;20050;-64
2022/03/09 05:35:50;;;;;;;17.77;9.15;;;-3.00;59.90;;;;;;4939720;28;20042;-66
2022/03/09 05:38:16;;;;;;;18.70;9.73;;;-3.00;59.90;;;;;;4939786;28;20040;-65
2022/03/09 05:40:41;;;;;;;19.42;9.65;;;-3.00;59.90;;;;;;4939545;28;20035;-65
2022/03/09 05:43:07;;;;;;;19.20;10.25;;;-3.00;59.80;;;;;;4938035;28;20047;-61
2022/03/09 05:45:33;;;;;;;19.15;9.75;;;-3.00;60.00;;;;;;4937293;28;20082;-65
2022/03/09 05:47:58;;;;;;;19.80;9.95;;;-3.00;60.20;;;;;;4934918;28;20044;-65
2022/03/09 05:50:24;;;;;;;18.55;9.82;;;-3.00;60.10;;;;;;4937220;28;20403;-65
2022/03/09 05:52:50;;;;;;;24.67;10.70;;;-3.00;60.20;;;;;;4936389;28;20044;-65
2022/03/09 05:55:16;;;;;;;21.45;11.27;;;-2.90;60.20;;;;;;4936749;28;20119;-66
2022/03/09 05:57:41;;;;;;;20.70;10.45;;;-3.00;60.20;;;;;;4933673;28;20078;-65
2022/03/09 06:00:08;;;;;;;23.70;11.35;;;-3.00;60.10;;;;;;4935800;28;20035;-64
2022/03/09 06:02:34;;;;;;;20.85;11.05;;;-3.00;60.10;;;;;;4933399;28;20036;-65
2022/03/09 06:04:59;;;;;;;20.50;11.02;;;-3.00;60.20;;;;;;4938223;28;20035;-65
2022/03/09 06:07:25;;;;;;;23.05;11.35;;;-3.00;60.10;;;;;;4936903;28;20031;-65
2022/03/09 06:09:51;;;;;;;26.88;12.10;;;-2.90;60.10;;;;;;4936687;28;20415;-65
2022/03/09 06:12:17;;;;;;;29.98;14.10;;;-3.00;60.30;;;;;;4935329;28;20028;-64
2022/03/09 06:14:44;;;;;;;27.77;14.98;;;-2.90;60.60;;;;;;4935396;28;20042;-65
2022/03/09 06:17:10;;;;;;;33.30;14.85;;;-2.90;60.40;;;;;;4937787;28;20510;-66
2022/03/09 06:19:35;;;;;;;28.83;14.68;;;-2.90;60.50;;;;;;4936523;28;20042;-65
2022/03/09 06:22:01;;;;;;;33.00;15.23;;;-2.90;60.40;;;;;;4940346;28;20035;-65
2022/03/09 06:24:27;;;;;;;33.55;16.27;;;-2.80;60.60;;;;;;4937743;28;20032;-64
2022/03/09 06:26:53;;;;;;;33.45;14.85;;;-2.90;60.60;;;;;;4938690;28;20507;-65
2022/03/09 06:29:20;;;;;;;33.40;14.88;;;-2.90;60.70;;;;;;4940841;28;20126;-65
2022/03/09 06:31:46;;;;;;;30.38;14.27;;;-2.90;60.90;;;;;;4939152;28;20039;-63
2022/03/09 06:34:12;;;;;;;38.40;17.50;;;-2.80;61.20;;;;;;4941052;28;20039;-65
2022/03/09 06:36:43;;;;;;;31.17;15.02;;;-2.90;61.30;;;;;;4939786;28;20054;-65
2022/03/09 06:39:09;;;;;;;34.92;15.25;;;-2.80;61.50;;;;;;4954755;28;20066;-65
2022/03/09 06:41:35;;;;;;;33.80;15.70;;;-2.80;61.40;;;;;;4941721;28;20042;-65
2022/03/09 06:44:01;;;;;;;36.70;14.95;;;-2.80;61.40;;;;;;4939995;28;20036;-64
2022/03/09 06:46:26;;;;;;;31.00;14.90;;;-2.80;61.50;;;;;;4939523;28;20533;-62
2022/03/09 06:48:52;;;;;;;36.35;15.48;;;-2.70;61.60;;;;;;4938959;28;20126;-65
2022/03/09 06:51:17;;;;;;;37.40;15.98;;;-2.70;61.80;;;;;;4938487;28;20032;-64
2022/03/09 06:53:45;;;;;;;32.55;15.00;;;-2.60;62.00;;;;;;4938613;28;20046;-65
2022/03/09 06:56:11;;;;;;;32.78;14.70;;;-2.60;62.10;;;;;;4939870;28;20040;-65
2022/03/09 06:58:37;;;;;;;29.65;13.88;;;-2.50;62.30;;;;;;4938531;28;20391;-63
2022/03/09 07:01:03;;;;;;;27.55;12.23;;;-2.50;62.30;;;;;;4939891;28;20161;-65
2022/03/09 07:03:28;;;;;;;28.08;13.25;;;-2.40;62.40;;;;;;4938437;28;20039;-64
2022/03/09 07:05:54;;;;;;;24.83;13.15;;;-2.30;62.50;;;;;;4936815;28;20927;-65
2022/03/09 07:08:20;;;;;;;30.52;13.20;;;-2.30;62.40;;;;;;4938723;28;20485;-65
2022/03/09 07:10:46;;;;;;;27.67;12.43;;;-2.20;62.30;;;;;;4937563;28;20026;-66
2022/03/09 07:13:12;;;;;;;29.00;11.82;;;-2.10;62.40;;;;;;4939735;28;20066;-66
2022/03/09 07:15:37;;;;;;;30.02;13.32;;;-2.10;62.40;;;;;;4938878;28;20520;-64
2022/03/09 07:18:03;;;;;;;30.92;12.90;;;-2.00;62.50;;;;;;4938918;28;20039;-66
2022/03/09 07:20:29;;;;;;;31.77;13.77;;;-1.90;62.60;;;;;;4938612;28;20427;-66
2022/03/09 07:22:55;;;;;;;31.33;13.77;;;-1.80;62.60;;;;;;4937781;28;20495;-65
2022/03/09 07:25:21;;;;;;;28.27;12.27;;;-1.70;62.70;;;;;;4938963;28;20075;-65
2022/03/09 07:27:47;;;;;;;28.60;13.13;;;-1.70;62.60;;;;;;4939118;28;20454;-66
2022/03/09 07:30:13;;;;;;;29.58;13.82;;;-1.60;62.60;;;;;;4938621;28;20047;-66
2022/03/09 07:32:39;;;;;;;35.97;16.35;;;-1.50;62.60;;;;;;4937032;28;20046;-65
2022/03/09 07:35:05;;;;;;;30.98;15.20;;;-1.40;62.80;;;;;;4939502;28;20028;-66
2022/03/09 07:37:31;;;;;;;29.00;13.88;;;-1.30;62.80;;;;;;4939360;28;20039;-64
2022/03/09 07:39:57;;;;;;;27.08;13.82;;;-1.20;62.90;;;;;;4937009;28;20039;-64
2022/03/09 07:42:22;;;;;;;28.35;13.48;;;-1.10;63.00;;;;;;4940308;28;20044;-65
2022/03/09 07:44:48;;;;;;;28.00;13.50;;;-1.00;63.00;;;;;;4937288;28;20063;-65
2022/03/09 07:47:14;;;;;;;25.38;13.57;;;-0.90;63.90;;;;;;4940076;28;20126;-65
2022/03/09 07:49:39;;;;;;;28.95;13.32;;;-0.80;63.70;;;;;;4938827;28;20082;-65
2022/03/09 07:52:06;;;;;;;26.98;13.20;;;-0.70;62.80;;;;;;4939261;28;20054;-66
2022/03/09 07:54:32;;;;;;;25.20;11.98;;;-0.60;62.60;;;;;;4938739;28;20036;-63
2022/03/09 07:56:58;;;;;;;23.30;12.50;;;-0.50;62.40;;;;;;4939399;28;20281;-66
2022/03/09 07:59:25;;;;;;;23.27;12.32;;;-0.40;62.30;;;;;;4938037;28;20055;-65
2022/03/09 08:01:52;;;;;;;20.30;10.98;;;-0.40;62.00;;;;;;4939515;28;20043;-66
2022/03/09 08:04:22;;;;;;;22.38;12.10;;;-0.30;61.80;;;;;;4945078;28;20143;-65
2022/03/09 08:06:49;;;;;;;23.45;11.88;;;-0.20;61.70;;;;;;4937230;28;20035;-65
2022/03/09 08:09:15;;;;;;;21.63;11.48;;;-0.20;61.60;;;;;;4938121;28;20039;-65
2022/03/09 08:11:42;;;;;;;26.55;12.75;;;-0.10;61.50;;;;;;4937107;28;20039;-66
2022/03/09 08:14:07;;;;;;;19.33;11.35;;;0.00;61.50;;;;;;4938729;28;20395;-66
2022/03/09 08:16:33;;;;;;;23.95;12.57;;;0.10;61.30;;;;;;4938128;28;20032;-65
2022/03/09 08:18:59;;;;;;;24.15;12.73;;;0.20;61.20;;;;;;4937211;28;20058;-65
2022/03/09 08:21:24;;;;;;;22.55;12.02;;;0.30;61.10;;;;;;4938699;28;20035;-65
2022/03/09 08:23:50;;;;;;;21.50;12.50;;;0.40;61.10;;;;;;4936039;28;20090;-66
2022/03/09 08:26:16;;;;;;;24.00;12.23;;;0.50;60.90;;;;;;4938971;28;20031;-65
2022/03/09 08:28:42;;;;;;;27.80;13.60;;;0.50;60.90;;;;;;4935864;28;20039;-66
2022/03/09 08:31:07;;;;;;;26.33;13.35;;;0.60;60.90;;;;;;4938040;28;20043;-66
2022/03/09 08:33:33;;;;;;;29.98;12.73;;;0.70;61.00;;;;;;4939422;28;20094;-66
2022/03/09 08:35:59;;;;;;;22.27;11.63;;;0.80;61.40;;;;;;4937475;28;20510;-66
2022/03/09 08:38:25;;;;;;;21.05;11.77;;;0.90;61.10;;;;;;4939932;28;20032;-66
2022/03/09 08:40:51;;;;;;;18.75;10.75;;;1.00;60.70;;;;;;4937272;28;20038;-66
2022/03/09 08:43:17;;;;;;;18.85;10.48;;;1.10;60.70;;;;;;4937850;28;20641;-66
2022/03/09 08:45:44;;;;;;;20.42;10.45;;;1.20;60.60;;;;;;4938026;28;20122;-65
2022/03/09 08:48:10;;;;;;;18.83;10.18;;;1.30;60.40;;;;;;4937750;28;20252;-65
2022/03/09 08:50:36;;;;;;;18.83;10.40;;;1.40;60.20;;;;;;4941568;28;20306;-66
2022/03/09 08:53:02;;;;;;;17.95;9.65;;;1.40;59.90;;;;;;4938013;28;20048;-65
2022/03/09 08:55:28;;;;;;;15.18;9.45;;;1.50;59.60;;;;;;4937002;28;20107;-66
2022/03/09 08:57:54;;;;;;;22.60;9.77;;;1.60;59.50;;;;;;4938359;28;20043;-66
2022/03/09 09:00:19;;;;;;;17.52;10.10;;;1.70;59.50;;;;;;4938331;28;20044;-66
2022/03/09 09:02:45;;;;;;;17.35;9.80;;;1.80;60.10;;;;;;4933739;28;20039;-65
2022/03/09 09:05:11;;;;;;;23.23;9.95;;;1.90;59.30;;;;;;4938774;28;20050;-66
2022/03/09 09:07:37;;;;;;;15.88;9.60;;;2.00;59.20;;;;;;4938913;28;20503;-66
2022/03/09 09:10:03;;;;;;;16.98;10.20;;;2.10;59.10;;;;;;4936795;28;20098;-65
2022/03/09 09:12:30;;;;;;;22.75;10.60;;;2.20;59.10;;;;;;4936611;28;20054;-65
2022/03/09 09:14:56;;;;;;;19.13;10.68;;;2.30;59.10;;;;;;4937713;28;20035;-66
2022/03/09 09:17:22;;;;;;;17.98;9.73;;;2.40;58.80;;;;;;4939687;28;20039;-66
2022/03/09 09:19:47;;;;;;;18.70;10.55;;;2.50;58.70;;;;;;4936878;28;20032;-65
2022/03/09 09:22:13;;;;;;;18.95;10.05;;;2.70;58.60;;;;;;4939324;28;20536;-65
2022/03/09 09:24:39;;;;;;;17.20;10.57;;;2.80;58.50;;;;;;4951775;28;20043;-65
2022/03/09 09:27:04;;;;;;;17.80;10.55;;;2.90;58.40;;;;;;4937405;28;20142;-65
2022/03/09 09:29:30;;;;;;;18.05;10.73;;;3.00;58.30;;;;;;4939409;28;20387;-66
2022/03/09 09:31:56;;;;;;;36.22;11.45;;;3.10;58.30;;;;;;4937291;28;20047;-66
2022/03/09 09:34:21;;;;;;;22.42;10.73;;;3.20;58.10;;;;;;4939522;28;20047;-66
2022/03/09 09:36:48;;;;;;;17.85;10.27;;;3.30;57.90;;;;;;4937477;28;20036;-65
2022/03/09 09:39:15;;;;;;;19.85;11.30;;;3.40;57.70;;;;;;4937865;28;20034;-65
2022/03/09 09:41:47;;;;;;;18.75;10.30;;;3.60;58.40;;;;;;4938361;28;20047;-65
2022/03/09 09:44:13;;;;;;;21.45;10.70;;;3.70;57.60;;;;;;4939708;28;20078;-66
2022/03/09 09:46:40;;;;;;;20.27;11.40;;;3.80;57.60;;;;;;4936967;28;20040;-65
2022/03/09 09:49:11;;;;;;;19.25;10.98;;;3.80;57.50;;;;;;4938872;28;20561;-65
2022/03/09 09:51:39;;;;;;;24.80;11.80;;;3.90;57.40;;;;;;4938646;28;20043;-65
2022/03/09 09:54:05;;;;;;;20.77;12.10;;;4.10;57.40;;;;;;4934582;28;20051;-65
2022/03/09 09:56:36;;;;;;;22.88;11.98;;;4.20;57.40;;;;;;4941705;28;20032;-66
2022/03/09 09:59:02;;;;;;;17.73;10.50;;;4.30;57.30;;;;;;4938871;28;20040;-66
2022/03/09 10:01:28;;;;;;;18.52;11.15;;;4.40;57.20;;;;;;4942051;28;20096;-65
2022/03/09 10:03:54;;;;;;;21.40;11.30;;;4.50;57.00;;;;;;4944078;28;20040;-66
2022/03/09 10:06:21;;;;;;;19.15;12.02;;;4.70;56.90;;;;;;4944211;28;20882;-65
2022/03/09 10:09:06;;;;;;;19.92;11.38;;;4.80;56.70;;;;;;4942959;28;20066;-66
2022/03/09 10:11:51;;;;;;;;;;;4.90;56.50;;;;;;4943139;28;20036;-67
2022/03/09 10:14:50;;;;;;;18.75;10.38;;;5.00;56.70;;;;;;4943392;28;19970;-66
2022/03/09 10:17:28;;;;;;;20.85;11.77;;;5.10;56.20;;;;;;4927373;28;20031;-66
2022/03/09 10:20:06;;;;;;;19.40;11.52;;;5.20;56.10;;;;;;4939524;28;20039;-65
2022/03/09 10:22:37;;;;;;;22.67;11.82;;;5.30;56.10;;;;;;4941188;28;20114;-66
2022/03/09 10:25:09;;;;;;;22.25;13.23;;;5.40;56.00;;;;;;4939978;28;20581;-66
2022/03/09 10:27:42;;;;;;;21.25;12.50;;;5.50;55.60;;;;;;4941731;28;20062;-66
2022/03/09 10:30:13;;;;;;;24.20;12.43;;;5.60;55.50;;;;;;4943148;28;20411;-66
2022/03/09 10:32:56;;;;;;;20.38;11.93;;;5.70;55.50;;;;;;4941405;28;20035;-66
2022/03/09 10:35:30;;;;;;;20.63;12.10;;;5.90;55.40;;;;;;4942519;28;20028;-66
2022/03/09 10:37:58;;;;;;;23.17;12.95;;;6.00;55.40;;;;;;4947080;28;20127;-66
2022/03/09 10:40:25;;;;;;;24.15;14.32;;;6.10;55.30;;;;;;4939697;28;20036;-67
2022/03/09 10:42:51;;;;;;;23.08;13.52;;;6.20;55.00;;;;;;4939714;28;20040;-65
2022/03/09 10:45:18;;;;;;;24.55;14.70;;;6.30;54.90;;;;;;4941601;28;20043;-66
2022/03/09 10:47:48;;;;;;;24.52;14.05;;;6.40;54.80;;;;;;4940251;28;20559;-67
2022/03/09 10:50:25;;;;;;;25.67;15.13;;;6.50;54.70;;;;;;4939570;28;20050;-66
2022/03/09 10:53:02;;;;;;;25.58;15.20;;;6.60;55.10;;;;;;4954781;28;20259;-65
2022/03/09 10:55:29;;;;;;;26.52;15.48;;;6.80;54.60;;;;;;4941032;28;20167;-66
2022/03/09 10:58:11;;;;;;;28.42;16.17;;;6.90;54.40;;;;;;4937858;28;20044;-66
2022/03/09 11:00:44;;;;;;;28.08;14.93;;;7.00;53.50;;;;;;4939969;28;20482;-65
2022/03/09 11:03:12;;;;;;;29.35;15.40;;;7.10;53.60;;;;;;4938912;28;20513;-66
2022/03/09 11:05:53;;;;;;;25.35;15.57;;;7.30;53.90;;;;;;4940485;28;20027;-66
2022/03/09 11:08:22;;;;;;;25.38;15.57;;;7.40;53.40;;;;;;4940265;28;20502;-66
2022/03/09 11:10:48;;;;;;;29.48;16.27;;;7.50;53.60;;;;;;4940466;28;20173;-66
2022/03/09 11:13:15;;;;;;;31.30;16.80;;;7.60;53.30;;;;;;4939470;28;20039;-66
2022/03/09 11:15:43;;;;;;;28.92;16.90;;;7.80;53.40;;;;;;4940789;28;20518;-65
2022/03/09 11:18:13;;;;;;;28.50;16.40;;;7.90;52.70;;;;;;4940478;28;20095;-65
2022/03/09 11:20:39;;;;;;;27.98;16.55;;;7.90;52.40;;;;;;4940499;28;20047;-66
2022/03/09 11:23:05;;;;;;;27.38;16.13;;;8.00;52.60;;;;;;4942700;28;20388;-65
2022/03/09 11:25:31;;;;;;;27.80;15.77;;;8.10;52.50;;;;;;4942541;28;20487;-66
2022/03/09 11:27:58;;;;;;;29.35;17.30;;;8.10;52.30;;;;;;4942440;28;20166;-66
2022/03/09 11:30:33;;;;;;;33.08;17.60;;;8.30;51.80;;;;;;4941654;28;20074;-66
2022/03/09 11:32:59;;;;;;;31.83;15.85;;;8.40;51.60;;;;;;4942317;28;20090;-66
2022/03/09 11:35:38;;;;;;;30.13;16.70;;;8.40;51.80;;;;;;4942105;28;20039;-66
2022/03/09 11:38:32;;;;;;;26.05;16.10;;;8.60;51.00;;;;;;4942962;28;20126;-67
2022/03/09 11:41:16;;;;;;;27.48;16.58;;;8.70;50.70;;;;;;4941707;28;20035;-67
2022/03/09 11:43:41;;;;;;;25.63;15.73;;;8.80;50.20;;;;;;4942204;28;20499;-66
2022/03/09 11:46:07;;;;;;;25.58;15.85;;;8.90;50.70;;;;;;4942120;28;20047;-66
2022/03/09 11:49:02;;;;;;;30.85;16.67;;;9.00;50.20;;;;;;4941770;28;20495;-67
2022/03/09 11:51:29;;;;;;;27.63;15.47;;;9.10;48.20;;;;;;4937137;29;20055;-66
2022/03/09 11:53:54;;;;;;;27.20;15.02;;;9.10;49.60;;;;;;4942203;28;20046;-65
2022/03/09 11:56:41;;;;;;;28.73;16.27;;;9.20;49.60;;;;;;4941205;28;20336;-66
2022/03/09 11:59:16;;;;;;;28.85;15.57;;;9.30;49.00;;;;;;4940843;28;20091;-66
2022/03/09 12:02:06;;;;;;;23.42;14.43;;;9.30;49.20;;;;;;4942404;28;20035;-65
2022/03/09 12:04:59;;;;;;;22.90;13.98;;;9.40;48.10;;;;;;4941660;28;20032;-67
2022/03/09 12:07:33;;;;;;;22.13;13.35;;;9.50;48.10;;;;;;4941671;28;20035;-65
2022/03/09 12:10:06;;;;;;;23.15;13.73;;;9.60;48.10;;;;;;4940462;28;20042;-66
2022/03/09 12:12:34;;;;;;;21.92;13.60;;;9.70;47.60;;;;;;4939629;28;20055;-67
2022/03/09 12:15:09;;;;;;;22.10;12.88;;;9.80;47.60;;;;;;4940507;28;20035;-66
2022/03/09 12:17:43;;;;;;;21.77;12.73;;;9.90;46.70;;;;;;4941028;28;20127;-66
2022/03/09 12:20:15;;;;;;;22.77;13.20;;;10.00;46.60;;;;;;4941055;28;20444;-66
2022/03/09 12:22:56;;;;;;;21.00;13.23;;;10.00;45.90;;;;;;4939676;28;20065;-67
2022/03/09 12:25:40;;;;;;;19.73;12.15;;;10.20;45.40;;;;;;4937026;28;20554;-63
2022/03/09 12:28:24;;;;;;;;;;;;;;;;;;;;;
2022/03/09 12:31:02;;;;;;;21.58;12.55;;;10.30;44.70;;;;;;4938588;28;20035;-67
2022/03/09 12:33:39;;;;;;;23.45;13.27;;;10.40;44.70;;;;;;4938179;28;20043;-67
2022/03/09 12:36:08;;;;;;;21.83;13.35;;;10.50;44.40;;;;;;4938208;28;20036;-66
2022/03/09 12:38:51;;;;;;;24.05;14.73;;;10.50;44.40;;;;;;4938468;28;20122;-66
2022/03/09 12:41:23;;;;;;;23.88;13.95;;;10.50;43.50;;;;;;4939455;28;20066;-67